Time;durP1;ratioP1;P1;durP2;ratioP2;P2;SDS_P1;SDS_P2;PMS_P1;PMS_P2;Temp;Humidity;BMP_temperature;BMP_pressure;BME280_temperature;BME280_humidity;BME280_pressure;Samples;Min_cycle;Max_cycle;Signal;HPM_P1;HPM_P2
2022/02/27 00:02:05;;;;;;;2.97;0.93;;;1.10;99.90;;;;;;4937104;29;20123;-74
2022/02/27 00:04:30;;;;;;;3.60;1.02;;;1.10;99.90;;;;;;4937258;29;20036;-74
2022/02/27 00:06:56;;;;;;;4.38;1.30;;;1.10;99.90;;;;;;4936983;29;20160;-72
2022/02/27 00:09:22;;;;;;;2.63;1.30;;;1.10;99.90;;;;;;4937352;29;20027;-72
2022/02/27 00:11:50;;;;;;;2.63;1.05;;;1.10;99.90;;;;;;4937043;29;20027;-72
2022/02/27 00:14:16;;;;;;;1.77;1.00;;;1.10;99.90;;;;;;4937034;29;20043;-72
2022/02/27 00:16:42;;;;;;;3.17;1.15;;;1.10;99.90;;;;;;4936961;29;20483;-72
2022/02/27 00:19:08;;;;;;;3.13;0.90;;;1.10;99.90;;;;;;4936915;29;20028;-72
2022/02/27 00:21:34;;;;;;;4.07;1.02;;;1.10;99.90;;;;;;4936918;29;20023;-72
2022/02/27 00:23:59;;;;;;;2.60;1.00;;;1.10;99.90;;;;;;4936702;29;20086;-72
2022/02/27 00:26:25;;;;;;;3.25;1.10;;;1.10;99.90;;;;;;4936994;29;20289;-72
2022/02/27 00:28:51;;;;;;;2.95;1.15;;;1.20;99.90;;;;;;4936991;29;20479;-72
2022/02/27 00:31:17;;;;;;;1.42;1.10;;;1.20;99.90;;;;;;4936840;29;20024;-71
2022/02/27 00:33:42;;;;;;;2.75;1.02;;;1.20;99.90;;;;;;4936699;29;20027;-71
2022/02/27 00:36:09;;;;;;;3.08;1.10;;;1.10;99.90;;;;;;4936636;29;20040;-71
2022/02/27 00:38:35;;;;;;;2.38;0.90;;;1.10;99.90;;;;;;4936600;29;20415;-71
2022/02/27 00:41:01;;;;;;;3.75;1.00;;;1.10;99.90;;;;;;4935411;29;20027;-71
2022/02/27 00:43:26;;;;;;;2.67;1.00;;;1.20;99.90;;;;;;4936641;29;20036;-71
2022/02/27 00:45:52;;;;;;;2.40;0.88;;;1.20;99.90;;;;;;4936567;29;20030;-71
2022/02/27 00:48:18;;;;;;;4.60;1.05;;;1.20;99.90;;;;;;4935660;29;20039;-71
2022/02/27 00:50:44;;;;;;;3.05;1.17;;;1.20;99.90;;;;;;4936309;29;20071;-71
2022/02/27 00:53:09;;;;;;;2.85;1.00;;;1.20;99.90;;;;;;4936349;29;20038;-71
2022/02/27 00:55:36;;;;;;;3.00;1.30;;;1.10;99.90;;;;;;4936529;29;20047;-72
2022/02/27 00:58:03;;;;;;;3.03;0.90;;;1.20;99.90;;;;;;4936198;29;20039;-72
2022/02/27 01:00:29;;;;;;;5.35;1.00;;;1.20;99.90;;;;;;4936114;29;20057;-72
2022/02/27 01:02:54;;;;;;;1.33;0.90;;;1.10;99.90;;;;;;4936167;29;20043;-72
2022/02/27 01:05:20;;;;;;;4.40;1.20;;;1.20;99.90;;;;;;4936048;29;20083;-72
2022/02/27 01:07:46;;;;;;;5.75;1.33;;;1.20;99.90;;;;;;4935973;29;20056;-72
2022/02/27 01:10:12;;;;;;;1.58;0.82;;;1.20;99.90;;;;;;4932637;29;20028;-72
2022/02/27 01:12:38;;;;;;;3.72;1.15;;;1.10;99.90;;;;;;4916722;29;20411;-72
2022/02/27 01:15:07;;;;;;;4.35;1.00;;;1.20;99.90;;;;;;4917225;29;20036;-75
2022/02/27 01:17:33;;;;;;;5.68;1.10;;;1.10;99.90;;;;;;4916867;29;20028;-74
2022/02/27 01:19:58;;;;;;;1.95;0.95;;;1.20;99.90;;;;;;4916997;29;20028;-74
2022/02/27 01:22:24;;;;;;;1.85;0.88;;;1.20;99.90;;;;;;4916682;29;20406;-75
2022/02/27 01:24:50;;;;;;;4.85;1.20;;;1.20;99.90;;;;;;4916604;29;20548;-71
2022/02/27 01:27:15;;;;;;;1.83;1.00;;;1.20;99.90;;;;;;4916937;29;20047;-73
2022/02/27 01:29:41;;;;;;;8.57;1.52;;;1.20;99.90;;;;;;4916586;29;20079;-73
2022/02/27 01:32:07;;;;;;;2.60;1.00;;;1.20;99.90;;;;;;4916890;29;20057;-71
2022/02/27 01:34:33;;;;;;;2.33;0.90;;;1.20;99.90;;;;;;4916796;29;20028;-70
2022/02/27 01:36:59;;;;;;;4.28;1.00;;;1.20;99.90;;;;;;4916631;29;20115;-70
2022/02/27 01:39:25;;;;;;;4.97;1.27;;;1.20;99.90;;;;;;4916388;29;20052;-70
2022/02/27 01:41:53;;;;;;;2.40;0.98;;;1.20;99.90;;;;;;4916198;29;20043;-70
2022/02/27 01:44:20;;;;;;;1.92;1.00;;;1.20;99.90;;;;;;4916423;29;20036;-70
2022/02/27 01:47:18;;;;;;;2.55;0.95;;;1.20;99.90;;;;;;4916238;29;20512;-70
2022/02/27 01:49:45;;;;;;;4.30;1.23;;;1.20;99.90;;;;;;4894635;29;20032;-70
2022/02/27 01:52:12;;;;;;;2.25;1.08;;;1.20;99.90;;;;;;4916705;29;20032;-70
2022/02/27 01:54:38;;;;;;;8.32;1.35;;;1.20;99.90;;;;;;4916698;29;20073;-70
2022/02/27 01:57:05;;;;;;;4.80;1.00;;;1.20;99.90;;;;;;4916338;29;20030;-70
2022/02/27 01:59:31;;;;;;;1.55;1.00;;;1.20;99.90;;;;;;4914735;29;20384;-70
2022/02/27 02:01:57;;;;;;;3.83;1.08;;;1.20;99.90;;;;;;4916318;29;20084;-70
2022/02/27 02:04:24;;;;;;;5.50;1.38;;;1.20;99.90;;;;;;4916462;29;20123;-70
2022/02/27 02:06:50;;;;;;;3.22;1.20;;;1.20;99.90;;;;;;4916043;29;20031;-70
2022/02/27 02:09:15;;;;;;;2.63;1.10;;;1.20;99.90;;;;;;4916039;29;20043;-70
2022/02/27 02:11:41;;;;;;;4.18;1.30;;;1.20;99.90;;;;;;4916146;29;20024;-70
2022/02/27 02:14:07;;;;;;;3.70;1.17;;;1.20;99.90;;;;;;4916229;29;20539;-70
2022/02/27 02:16:44;;;;;;;3.40;0.90;;;1.20;99.90;;;;;;4916016;29;20024;-70
2022/02/27 02:19:11;;;;;;;7.43;1.10;;;1.30;99.90;;;;;;4915958;29;20034;-70
2022/02/27 02:21:42;;;;;;;3.60;0.93;;;1.30;99.90;;;;;;4915868;29;20071;-70
2022/02/27 02:24:08;;;;;;;3.10;1.17;;;1.30;99.90;;;;;;4914623;29;20129;-70
2022/02/27 02:53:13;;;;;;;2.53;1.00;;;1.20;99.90;;;;;;4933635;29;20059;-70
2022/02/27 02:55:38;;;;;;;4.55;1.38;;;1.20;99.90;;;;;;4934542;29;20042;-70
2022/02/27 02:58:04;;;;;;;4.43;1.10;;;1.20;99.90;;;;;;4934554;29;20489;-70
2022/02/27 03:00:30;;;;;;;3.03;1.10;;;1.10;99.90;;;;;;4934902;29;20024;-70
2022/02/27 03:02:56;;;;;;;2.92;0.88;;;1.00;99.90;;;;;;4934276;29;20506;-70
2022/02/27 03:38:55;;;;;;;4.00;0.93;;;1.00;99.90;;;;;;4922517;29;20056;-68
2022/02/27 03:41:21;;;;;;;4.82;1.23;;;1.00;99.90;;;;;;4918536;29;20423;-68
2022/02/27 03:43:47;;;;;;;4.60;1.10;;;1.00;99.90;;;;;;4918561;29;20032;-68
2022/02/27 03:46:13;;;;;;;9.77;1.23;;;1.00;99.90;;;;;;4917468;29;20076;-69
2022/02/27 03:48:40;;;;;;;2.88;0.77;;;1.00;99.90;;;;;;4918631;29;20048;-68
2022/02/27 03:51:06;;;;;;;1.58;1.08;;;1.00;99.90;;;;;;4918815;29;20107;-68
2022/02/27 03:53:32;;;;;;;3.80;1.10;;;1.00;99.90;;;;;;4918605;29;20032;-68
2022/02/27 03:55:58;;;;;;;1.80;0.95;;;1.00;99.90;;;;;;4917485;29;20032;-68
2022/02/27 03:58:24;;;;;;;2.97;1.00;;;1.00;99.90;;;;;;4918374;29;20029;-68
2022/02/27 04:00:50;;;;;;;4.00;1.38;;;1.00;99.90;;;;;;4918367;29;20068;-68
2022/02/27 04:03:15;;;;;;;2.92;1.02;;;1.00;99.90;;;;;;4918132;29;20036;-68
2022/02/27 04:05:41;;;;;;;4.00;1.08;;;1.00;99.90;;;;;;4918287;29;20035;-68
2022/02/27 04:08:07;;;;;;;0.98;0.88;;;1.00;99.90;;;;;;4918007;29;20024;-68
2022/02/27 04:10:33;;;;;;;0.90;0.85;;;1.00;99.90;;;;;;4918189;29;20020;-68
2022/02/27 04:12:59;;;;;;;1.90;0.93;;;1.00;99.90;;;;;;4918225;29;20028;-68
2022/02/27 04:15:25;;;;;;;2.75;1.00;;;1.00;99.90;;;;;;4918065;29;20032;-68
2022/02/27 04:17:51;;;;;;;2.47;1.30;;;1.10;99.90;;;;;;4917963;29;20030;-68
2022/02/27 04:20:17;;;;;;;2.13;0.95;;;1.10;99.90;;;;;;4917933;29;20103;-69
2022/02/27 04:22:44;;;;;;;3.05;0.93;;;1.10;99.90;;;;;;4917783;29;20036;-69
2022/02/27 04:25:11;;;;;;;2.30;1.08;;;1.00;99.90;;;;;;4917854;29;20467;-70
2022/02/27 04:27:36;;;;;;;3.83;1.15;;;1.00;99.90;;;;;;4917750;29;20113;-69
2022/02/27 04:30:04;;;;;;;2.45;0.90;;;1.00;99.90;;;;;;4918070;29;20041;-70
2022/02/27 04:32:30;;;;;;;2.03;1.10;;;0.90;99.90;;;;;;4917747;29;20160;-70
2022/02/27 04:34:55;;;;;;;3.72;1.20;;;1.00;99.90;;;;;;4917792;29;20115;-69
2022/02/27 04:37:22;;;;;;;4.25;0.95;;;0.90;99.90;;;;;;4917241;29;20048;-70
2022/02/27 04:39:48;;;;;;;4.50;1.10;;;1.00;99.90;;;;;;4917667;29;20036;-70
2022/02/27 04:42:14;;;;;;;2.80;0.98;;;1.00;99.90;;;;;;4917487;29;20032;-70
2022/02/27 04:44:41;;;;;;;2.78;1.38;;;1.00;99.90;;;;;;4917569;29;20043;-70
2022/02/27 04:47:08;;;;;;;1.42;0.90;;;1.00;99.90;;;;;;4917673;29;20032;-70
2022/02/27 04:49:34;;;;;;;2.15;0.88;;;0.90;99.90;;;;;;4917457;29;20028;-70
2022/02/27 04:51:59;;;;;;;2.60;1.02;;;0.80;99.90;;;;;;4917436;29;20027;-70
2022/02/27 04:54:25;;;;;;;2.22;1.20;;;0.80;99.90;;;;;;4917570;29;20028;-70
2022/02/27 04:56:51;;;;;;;3.80;1.15;;;0.80;99.90;;;;;;4917363;29;20396;-70
2022/02/27 04:59:17;;;;;;;1.90;1.00;;;0.80;99.90;;;;;;4917402;29;20060;-69
2022/02/27 05:01:43;;;;;;;3.75;1.33;;;0.70;99.90;;;;;;4917295;29;20047;-69
2022/02/27 05:04:09;;;;;;;3.92;1.23;;;0.60;99.90;;;;;;4917020;29;20036;-70
2022/02/27 05:06:34;;;;;;;3.42;1.13;;;0.60;99.90;;;;;;4917278;29;20032;-70
2022/02/27 05:09:00;;;;;;;2.67;1.10;;;0.60;99.90;;;;;;4917399;29;20165;-70
2022/02/27 05:11:26;;;;;;;2.88;1.10;;;0.50;99.90;;;;;;4917069;29;20392;-70
2022/02/27 05:13:51;;;;;;;3.50;1.00;;;0.50;99.90;;;;;;4917054;29;20043;-70
2022/02/27 05:16:17;;;;;;;2.80;1.20;;;0.60;99.90;;;;;;4917173;29;20043;-70
2022/02/27 05:18:43;;;;;;;2.65;1.08;;;0.60;99.90;;;;;;4917016;29;20384;-68
2022/02/27 05:21:09;;;;;;;2.10;1.13;;;0.60;99.90;;;;;;4916932;29;20503;-69
2022/02/27 05:23:34;;;;;;;2.22;1.05;;;0.60;99.90;;;;;;4916750;29;20071;-69
2022/02/27 05:26:00;;;;;;;4.10;1.20;;;0.60;99.90;;;;;;4917162;29;20523;-70
2022/02/27 05:28:26;;;;;;;1.10;1.02;;;0.60;99.90;;;;;;4916640;29;20040;-69
2022/02/27 05:30:54;;;;;;;1.08;0.80;;;0.50;99.90;;;;;;4916847;29;20035;-68
2022/02/27 05:33:19;;;;;;;5.10;1.00;;;0.50;99.90;;;;;;4916224;29;20044;-71
2022/02/27 05:35:46;;;;;;;1.33;1.00;;;0.50;99.90;;;;;;4916502;29;20149;-68
2022/02/27 05:38:12;;;;;;;2.55;0.90;;;0.50;99.90;;;;;;4916345;29;20139;-74
2022/02/27 05:40:38;;;;;;;2.25;1.13;;;0.50;99.90;;;;;;4916809;29;20037;-71
2022/02/27 05:43:04;;;;;;;3.03;0.85;;;0.50;99.90;;;;;;4916710;29;20036;-71
2022/02/27 05:45:29;;;;;;;2.95;1.30;;;0.70;99.90;;;;;;4908089;29;20389;-71
2022/02/27 05:47:55;;;;;;;23.77;10.15;;;1.00;99.90;;;;;;4910366;29;20111;-73
2022/02/27 05:50:21;;;;;;;173.90;60.72;;;0.90;99.90;;;;;;4915686;29;20028;-73
2022/02/27 05:52:46;;;;;;;659.85;275.02;;;0.80;99.90;;;;;;4915580;29;20020;-70
2022/02/27 05:55:12;;;;;;;618.30;239.35;;;0.80;99.90;;;;;;4910714;29;20115;-70
2022/02/27 05:57:38;;;;;;;289.27;109.22;;;0.70;99.90;;;;;;4913004;29;20020;-70
2022/02/27 06:00:05;;;;;;;79.32;30.60;;;0.70;99.90;;;;;;4901532;29;20060;-70
2022/02/27 06:02:31;;;;;;;268.70;80.65;;;0.60;99.90;;;;;;4913906;29;20039;-70
2022/02/27 06:04:57;;;;;;;71.75;22.98;;;0.60;99.90;;;;;;4912406;29;20392;-68
2022/02/27 06:07:22;;;;;;;23.95;8.07;;;0.50;99.90;;;;;;4900737;29;20111;-77
2022/02/27 06:09:48;;;;;;;171.50;55.15;;;0.50;99.90;;;;;;4909591;29;20036;-75
2022/02/27 06:12:14;;;;;;;78.57;27.88;;;0.50;99.90;;;;;;4912778;29;20464;-71
2022/02/27 06:14:41;;;;;;;23.27;9.90;;;0.50;99.90;;;;;;4915205;29;20421;-72
2022/02/27 06:17:07;;;;;;;46.55;21.63;;;0.40;99.90;;;;;;4914597;29;20440;-71
2022/02/27 06:19:32;;;;;;;21.33;9.63;;;0.40;99.90;;;;;;4916188;29;20028;-70
2022/02/27 06:21:59;;;;;;;8.70;4.22;;;0.40;99.90;;;;;;4915819;29;20639;-72
2022/02/27 06:24:25;;;;;;;6.72;2.17;;;0.40;99.90;;;;;;4915731;29;20031;-69
2022/02/27 06:26:50;;;;;;;6.80;4.82;;;0.30;99.90;;;;;;4914610;29;20468;-73
2022/02/27 06:29:16;;;;;;;4.18;2.22;;;0.30;99.90;;;;;;4915785;29;20035;-72
2022/02/27 06:31:42;;;;;;;2.28;1.60;;;0.20;99.90;;;;;;4916013;29;20435;-72
2022/02/27 06:34:08;;;;;;;5.70;2.75;;;0.10;99.90;;;;;;4916050;29;20028;-72
2022/02/27 06:36:34;;;;;;;2.38;1.80;;;0.10;99.90;;;;;;4916120;29;20486;-72
2022/02/27 06:39:00;;;;;;;3.80;1.63;;;0.10;99.90;;;;;;4915599;29;20044;-72
2022/02/27 06:41:25;;;;;;;2.05;1.25;;;0.10;99.90;;;;;;4915339;29;20043;-72
2022/02/27 06:43:51;;;;;;;1.40;1.23;;;0.10;99.90;;;;;;4915636;29;20036;-72
2022/02/27 06:46:17;;;;;;;1.83;1.17;;;0.10;99.90;;;;;;4917164;29;20029;-72
2022/02/27 06:48:44;;;;;;;1.50;0.90;;;0.10;99.90;;;;;;4919572;29;20083;-72
2022/02/27 06:51:10;;;;;;;2.78;1.10;;;0.10;99.90;;;;;;4919554;29;20034;-75
2022/02/27 06:53:36;;;;;;;1.80;0.95;;;0.10;99.90;;;;;;4919811;29;20114;-75
2022/02/27 06:56:02;;;;;;;2.30;1.00;;;0.10;99.90;;;;;;4919700;29;20035;-74
2022/02/27 06:58:27;;;;;;;4.30;1.20;;;0.30;99.90;;;;;;4919308;29;20040;-75
2022/02/27 07:00:53;;;;;;;2.13;1.10;;;0.40;99.90;;;;;;4919404;29;20028;-77
2022/02/27 07:03:19;;;;;;;4.50;1.00;;;0.40;99.90;;;;;;4919179;29;20091;-72
2022/02/27 07:05:45;;;;;;;1.88;1.30;;;0.40;99.90;;;;;;4919642;29;20025;-72
2022/02/27 07:08:11;;;;;;;2.92;1.52;;;0.40;99.90;;;;;;4919031;29;20440;-74
2022/02/27 07:10:37;;;;;;;2.22;1.25;;;0.30;99.90;;;;;;4919206;29;20024;-71
2022/02/27 07:13:03;;;;;;;3.90;1.70;;;0.30;99.90;;;;;;4919114;29;20024;-70
2022/02/27 07:15:29;;;;;;;3.03;1.08;;;0.20;99.90;;;;;;4919126;29;20067;-72
2022/02/27 07:17:56;;;;;;;3.88;1.20;;;0.20;99.90;;;;;;4917145;29;20111;-71
2022/02/27 07:20:22;;;;;;;3.75;1.17;;;0.20;99.90;;;;;;4918240;29;20028;-72
2022/02/27 07:22:48;;;;;;;3.88;1.20;;;0.20;99.90;;;;;;4918369;29;20036;-71
2022/02/27 07:25:14;;;;;;;1.23;0.90;;;0.20;99.90;;;;;;4916181;29;20164;-71
2022/02/27 07:27:39;;;;;;;3.63;1.23;;;0.20;99.90;;;;;;4919257;29;20036;-71
2022/02/27 07:30:06;;;;;;;6.43;1.10;;;0.20;99.90;;;;;;4918583;29;20044;-73
2022/02/27 07:32:32;;;;;;;4.97;1.35;;;0.20;99.90;;;;;;4918447;29;20028;-74
2022/02/27 07:34:59;;;;;;;4.88;1.33;;;0.20;99.90;;;;;;4918493;29;20490;-73
2022/02/27 07:37:25;;;;;;;5.22;1.20;;;0.20;99.90;;;;;;4917533;29;20040;-71
2022/02/27 07:39:51;;;;;;;4.43;1.30;;;0.20;99.90;;;;;;4917786;29;20036;-72
2022/02/27 07:42:17;;;;;;;1.55;1.20;;;0.10;99.90;;;;;;4917689;29;20117;-72
2022/02/27 07:44:43;;;;;;;1.38;1.02;;;0.10;99.90;;;;;;4918586;29;20039;-72
2022/02/27 07:47:09;;;;;;;3.58;1.40;;;0.10;99.90;;;;;;4918867;29;20083;-72
2022/02/27 07:49:34;;;;;;;2.85;1.67;;;0.10;99.90;;;;;;4918362;29;20424;-72
2022/02/27 07:52:01;;;;;;;2.50;1.38;;;0.10;99.90;;;;;;4918595;29;20088;-71
2022/02/27 07:54:26;;;;;;;4.05;1.40;;;0.10;99.90;;;;;;4917258;29;20559;-74
2022/02/27 07:56:52;;;;;;;2.97;1.10;;;0.20;99.90;;;;;;4918006;29;20108;-72
2022/02/27 07:59:18;;;;;;;3.72;1.10;;;0.20;99.90;;;;;;4918382;29;20060;-71
2022/02/27 08:01:44;;;;;;;5.80;1.55;;;0.20;99.90;;;;;;4918708;29;20036;-71
2022/02/27 08:04:10;;;;;;;2.40;1.10;;;0.20;99.90;;;;;;4918317;29;20032;-71
2022/02/27 08:06:36;;;;;;;2.15;1.13;;;0.30;99.90;;;;;;4917668;29;20031;-71
2022/02/27 08:09:03;;;;;;;4.70;1.48;;;0.30;99.90;;;;;;4914814;29;20468;-71
2022/02/27 08:11:30;;;;;;;2.67;1.20;;;0.30;99.90;;;;;;4917188;29;20028;-71
2022/02/27 08:13:56;;;;;;;1.33;0.98;;;0.30;99.90;;;;;;4914809;29;20055;-71
2022/02/27 08:16:22;;;;;;;3.55;1.80;;;0.30;99.90;;;;;;4917931;29;20056;-71
2022/02/27 08:18:48;;;;;;;9.77;4.43;;;0.30;99.90;;;;;;4917987;29;20036;-72
2022/02/27 08:21:14;;;;;;;71.13;34.33;;;0.30;99.90;;;;;;4917994;29;20032;-73
2022/02/27 08:23:39;;;;;;;65.10;31.17;;;0.20;99.90;;;;;;4916542;29;20040;-73
2022/02/27 08:26:05;;;;;;;17.25;9.40;;;0.30;99.90;;;;;;4916710;29;20035;-73
2022/02/27 08:28:31;;;;;;;6.43;3.78;;;0.30;99.90;;;;;;4918006;29;20035;-73
2022/02/27 08:30:58;;;;;;;5.75;2.42;;;0.40;99.90;;;;;;4918140;29;20021;-73
2022/02/27 08:33:24;;;;;;;4.68;2.20;;;0.40;99.90;;;;;;4917634;29;20035;-74
2022/02/27 08:35:51;;;;;;;6.13;3.17;;;0.50;99.90;;;;;;4917971;29;20052;-73
2022/02/27 08:38:17;;;;;;;4.63;2.17;;;0.50;99.90;;;;;;4917296;29;20055;-73
2022/02/27 08:40:43;;;;;;;3.38;1.88;;;0.50;99.90;;;;;;4917168;29;20429;-72
2022/02/27 08:43:09;;;;;;;7.10;2.40;;;0.70;99.90;;;;;;4917222;29;20047;-70
2022/02/27 08:46:14;;;;;;;7.70;1.52;;;0.80;99.90;;;;;;4917479;29;20036;-72
2022/02/27 08:48:40;;;;;;;6.72;1.52;;;1.30;99.90;;;;;;4917431;29;20024;-70
2022/02/27 08:51:06;;;;;;;4.30;1.45;;;1.50;99.90;;;;;;4917793;29;20028;-70
2022/02/27 08:53:31;;;;;;;4.18;1.48;;;1.90;99.90;;;;;;4917301;29;20380;-70
2022/02/27 08:55:57;;;;;;;3.65;1.30;;;1.80;99.90;;;;;;4917428;29;20054;-71
2022/02/27 08:58:23;;;;;;;4.70;1.55;;;1.70;99.90;;;;;;4915957;29;20503;-71
2022/02/27 09:00:49;;;;;;;3.67;1.52;;;1.60;99.90;;;;;;4917290;29;20032;-70
2022/02/27 09:03:15;;;;;;;3.22;1.00;;;1.50;99.90;;;;;;4917365;29;20044;-71
2022/02/27 09:05:42;;;;;;;3.00;1.38;;;1.50;99.90;;;;;;4917615;29;20051;-71
2022/02/27 09:08:07;;;;;;;2.67;1.13;;;1.40;99.90;;;;;;4916831;29;20060;-72
2022/02/27 09:10:33;;;;;;;3.40;1.20;;;1.40;99.90;;;;;;4898488;29;20154;-72
2022/02/27 09:12:59;;;;;;;2.45;1.25;;;1.40;99.90;;;;;;4898532;29;20116;-72
2022/02/27 09:15:24;;;;;;;5.53;1.30;;;1.50;99.90;;;;;;4915663;29;20028;-72
2022/02/27 09:17:50;;;;;;;5.57;1.10;;;1.50;99.90;;;;;;4917102;29;20024;-72
2022/02/27 09:20:16;;;;;;;5.45;1.25;;;1.40;99.90;;;;;;4917171;29;20380;-71
2022/02/27 09:22:42;;;;;;;5.53;1.30;;;1.50;99.90;;;;;;4917312;29;20036;-72
2022/02/27 09:25:08;;;;;;;2.50;1.10;;;1.50;99.90;;;;;;4916135;29;20420;-73
2022/02/27 09:27:34;;;;;;;5.68;2.05;;;1.60;99.90;;;;;;4916582;29;20032;-72
2022/02/27 09:30:00;;;;;;;1.55;1.10;;;1.60;99.90;;;;;;4917155;29;20054;-72
2022/02/27 09:32:25;;;;;;;2.05;1.35;;;1.60;99.90;;;;;;4916760;29;20472;-72
2022/02/27 09:34:51;;;;;;;2.30;1.60;;;1.60;99.90;;;;;;4916959;29;20115;-72
2022/02/27 09:37:17;;;;;;;4.05;1.27;;;1.70;99.90;;;;;;4916353;29;20040;-71
2022/02/27 09:39:42;;;;;;;3.83;1.10;;;1.70;99.90;;;;;;4916848;29;20043;-72
2022/02/27 09:42:08;;;;;;;2.75;1.40;;;1.70;99.90;;;;;;4916783;29;20460;-72
2022/02/27 09:44:39;;;;;;;1.73;0.90;;;1.80;99.90;;;;;;4916648;29;20064;-72
2022/02/27 09:47:14;;;;;;;2.05;1.08;;;1.80;99.90;;;;;;4916478;29;20067;-72
2022/02/27 09:49:46;;;;;;;2.47;1.05;;;1.90;99.90;;;;;;4916250;29;20122;-72
2022/02/27 09:52:13;;;;;;;1.67;0.95;;;2.00;99.90;;;;;;4916019;29;20107;-72
2022/02/27 09:54:39;;;;;;;2.88;1.20;;;2.00;99.90;;;;;;4916467;29;20036;-72
2022/02/27 09:57:04;;;;;;;4.47;1.17;;;2.10;99.90;;;;;;4916261;29;20024;-72
2022/02/27 09:59:30;;;;;;;4.32;1.20;;;2.10;99.90;;;;;;4916099;29;20116;-72
2022/02/27 10:01:58;;;;;;;1.33;0.95;;;2.20;99.90;;;;;;4916474;29;20028;-72
2022/02/27 10:04:25;;;;;;;2.83;1.10;;;2.20;99.90;;;;;;4916068;29;20071;-72
2022/02/27 10:06:51;;;;;;;3.17;1.00;;;2.30;99.90;;;;;;4916558;29;20024;-72
2022/02/27 10:09:26;;;;;;;2.60;1.17;;;2.30;99.90;;;;;;4916365;29;20523;-72
2022/02/27 10:11:52;;;;;;;2.13;1.05;;;2.30;99.90;;;;;;4916050;29;20107;-72
2022/02/27 10:14:28;;;;;;;3.78;1.02;;;2.40;99.90;;;;;;4915957;29;20035;-72
2022/02/27 10:17:04;;;;;;;8.68;1.45;;;2.40;99.90;;;;;;4915973;29;20567;-72
2022/02/27 10:19:36;;;;;;;3.17;1.10;;;2.50;99.90;;;;;;4915587;29;20043;-72
2022/02/27 10:22:02;;;;;;;4.85;1.25;;;2.50;99.90;;;;;;4915990;29;20024;-72
2022/02/27 10:24:28;;;;;;;2.10;1.05;;;2.50;99.90;;;;;;4915853;29;20034;-72
2022/02/27 10:26:54;;;;;;;1.40;1.20;;;2.60;99.90;;;;;;4916140;29;20103;-72
2022/02/27 10:29:21;;;;;;;4.28;1.13;;;2.60;99.90;;;;;;4915616;29;20076;-72
2022/02/27 10:31:57;;;;;;;1.58;0.75;;;2.60;99.90;;;;;;4916164;29;20024;-72
2022/02/27 10:34:35;;;;;;;6.65;1.30;;;2.70;99.90;;;;;;4915599;29;20036;-72
2022/02/27 10:37:05;;;;;;;4.75;1.00;;;2.70;99.90;;;;;;4915802;29;20388;-67
2022/02/27 10:39:43;;;;;;;4.43;1.23;;;2.70;99.90;;;;;;4915872;29;20032;-70
2022/02/27 10:42:25;;;;;;;10.27;1.95;;;2.70;99.90;;;;;;4915736;29;20063;-70
2022/02/27 10:44:57;;;;;;;2.15;1.40;;;2.80;99.90;;;;;;4915729;29;20039;-70
2022/02/27 10:47:31;;;;;;;3.53;1.35;;;2.80;99.90;;;;;;4915718;29;20032;-70
2022/02/27 10:50:00;;;;;;;4.28;1.00;;;2.90;99.90;;;;;;4915677;29;20492;-68
2022/02/27 10:52:26;;;;;;;2.72;1.15;;;2.90;99.90;;;;;;4915698;29;20107;-68
2022/02/27 10:54:57;;;;;;;3.35;1.20;;;2.90;99.90;;;;;;4915961;29;20035;-69
2022/02/27 10:57:41;;;;;;;3.28;1.33;;;3.00;99.90;;;;;;4915620;29;20032;-69
2022/02/27 11:00:19;;;;;;;1.80;1.00;;;3.00;99.90;;;;;;4915703;29;20048;-69
2022/02/27 11:03:04;;;;;;;5.78;1.70;;;3.00;99.90;;;;;;4915775;29;20032;-69
2022/02/27 11:05:32;;;;;;;2.80;1.50;;;3.00;99.90;;;;;;4915544;29;20391;-69
2022/02/27 11:08:03;;;;;;;5.80;1.40;;;3.10;99.90;;;;;;4915792;29;20483;-70
2022/02/27 11:10:33;;;;;;;4.50;1.90;;;3.10;99.90;;;;;;4915291;29;20491;-71
2022/02/27 11:13:05;;;;;;;3.50;1.30;;;3.50;99.90;;;;;;4915638;29;20084;-70
2022/02/27 11:15:32;;;;;;;3.72;1.33;;;4.20;99.90;;;;;;4915241;29;20064;-69
2022/02/27 11:17:58;;;;;;;1.77;1.13;;;4.20;99.90;;;;;;4914566;29;20028;-69
2022/02/27 11:20:26;;;;;;;3.58;1.23;;;4.10;99.90;;;;;;4909501;29;20025;-69
2022/02/27 11:22:53;;;;;;;3.20;1.13;;;3.90;99.90;;;;;;4896750;29;20041;-68
2022/02/27 11:25:20;;;;;;;5.68;1.30;;;3.80;99.90;;;;;;4900218;29;20112;-68
2022/02/27 11:28:08;;;;;;;2.38;1.27;;;3.70;99.90;;;;;;4911846;29;20392;-69
2022/02/27 11:30:37;;;;;;;4.55;1.40;;;3.70;99.90;;;;;;4911535;29;20084;-69
2022/02/27 11:33:11;;;;;;;2.33;1.10;;;3.70;99.90;;;;;;4917608;29;20035;-69
2022/02/27 11:35:51;;;;;;;1.98;1.13;;;3.70;99.90;;;;;;4918658;29;20518;-69
2022/02/27 11:38:31;;;;;;;2.08;1.20;;;3.70;99.90;;;;;;4918739;29;20062;-69
2022/02/27 11:41:17;;;;;;;2.03;1.05;;;3.70;99.90;;;;;;4919002;29;20032;-69
2022/02/27 11:43:50;;;;;;;2.95;1.20;;;3.70;99.90;;;;;;4918464;29;20040;-69
2022/02/27 11:46:36;;;;;;;4.07;1.50;;;3.70;99.90;;;;;;4918742;29;20054;-69
2022/02/27 11:49:02;;;;;;;4.43;1.30;;;3.70;99.90;;;;;;4918803;29;20095;-69
2022/02/27 11:51:36;;;;;;;3.00;1.33;;;3.70;99.90;;;;;;4918815;29;20024;-69
2022/02/27 11:54:12;;;;;;;2.33;1.00;;;3.80;99.90;;;;;;4918703;29;20059;-68
2022/02/27 11:56:39;;;;;;;2.92;1.02;;;3.80;99.90;;;;;;4917438;29;20032;-69
2022/02/27 11:59:08;;;;;;;4.43;0.80;;;3.80;99.90;;;;;;4918649;29;20028;-68
2022/02/27 12:01:47;;;;;;;1.20;0.88;;;3.80;99.90;;;;;;4918266;29;20028;-68
2022/02/27 12:04:24;;;;;;;2.05;1.00;;;3.80;99.90;;;;;;4918268;29;20572;-68
2022/02/27 12:07:09;;;;;;;2.95;1.17;;;3.80;99.90;;;;;;4918612;29;20028;-68
2022/02/27 12:09:53;;;;;;;2.58;1.00;;;3.80;99.90;;;;;;4918332;29;20054;-68
2022/02/27 12:12:30;;;;;;;4.63;2.10;;;3.80;99.90;;;;;;4918281;29;20241;-72
2022/02/27 12:15:19;;;;;;;3.83;1.20;;;3.90;99.90;;;;;;4918143;29;20031;-72
2022/02/27 12:18:01;;;;;;;2.70;0.90;;;3.90;99.90;;;;;;4917497;29;20028;-72
2022/02/27 12:20:43;;;;;;;2.75;1.15;;;3.90;99.90;;;;;;4917001;29;20040;-73
2022/02/27 12:23:27;;;;;;;3.13;1.30;;;4.00;99.90;;;;;;4916434;29;20666;-75
2022/02/27 12:25:53;;;;;;;2.65;1.52;;;4.00;99.90;;;;;;4900421;29;20520;-76
2022/02/27 12:28:44;;;;;;;2.13;1.10;;;4.00;99.90;;;;;;4898014;29;20496;-77
2022/02/27 12:31:10;;;;;;;4.05;0.90;;;4.00;99.90;;;;;;4915406;29;20035;-76
2022/02/27 12:33:37;;;;;;;3.97;1.33;;;4.00;99.90;;;;;;4907681;29;20028;-75
2022/02/27 12:36:03;;;;;;;2.10;0.80;;;4.00;99.90;;;;;;4899536;29;20032;-77
2022/02/27 12:38:29;;;;;;;3.42;1.20;;;4.10;99.90;;;;;;4906735;29;20075;-76
2022/02/27 12:41:03;;;;;;;2.00;0.98;;;4.10;99.90;;;;;;4899007;29;20100;-76
2022/02/27 12:43:30;;;;;;;3.33;0.98;;;4.10;99.90;;;;;;4902434;29;20385;-74
2022/02/27 12:45:56;;;;;;;2.80;1.00;;;4.20;99.90;;;;;;4917521;29;20024;-73
2022/02/27 12:50:10;;;;;;;1.40;1.10;;;4.20;99.90;;;;;;4917737;29;20024;-74
2022/02/27 12:51:11;;;;;;;2.10;0.90;;;5.20;99.90;;;;;;4917439;29;20046;-75
2022/02/27 12:53:39;;;;;;;2.85;1.13;;;5.40;99.90;;;;;;4913770;29;20091;-71
2022/02/27 12:56:05;;;;;;;2.10;1.00;;;5.10;99.90;;;;;;4915825;29;20432;-71
2022/02/27 12:58:40;;;;;;;2.47;0.98;;;4.90;99.90;;;;;;4916867;29;20056;-71
2022/02/27 13:01:07;;;;;;;3.42;0.93;;;4.80;99.90;;;;;;4916982;29;20091;-72
2022/02/27 13:03:34;;;;;;;4.72;0.90;;;4.80;99.90;;;;;;4917099;29;20522;-73
2022/02/27 13:06:02;;;;;;;1.13;0.80;;;4.70;99.90;;;;;;4917428;29;20083;-71
2022/02/27 13:08:27;;;;;;;1.73;1.10;;;4.90;99.90;;;;;;4917202;29;20034;-71
2022/02/27 13:10:53;;;;;;;3.08;1.13;;;5.10;99.90;;;;;;4917367;29;20170;-71
2022/02/27 13:13:19;;;;;;;4.60;1.40;;;5.00;99.90;;;;;;4916220;29;20036;-72
2022/02/27 13:16:03;;;;;;;2.00;0.80;;;5.20;99.90;;;;;;4917175;29;20036;-70
2022/02/27 13:18:28;;;;;;;3.33;1.17;;;5.40;99.90;;;;;;4916957;29;20099;-69
2022/02/27 13:20:59;;;;;;;2.72;1.17;;;5.50;99.90;;;;;;4916735;29;20099;-69
2022/02/27 13:23:28;;;;;;;2.83;1.30;;;5.40;99.90;;;;;;4917107;29;20040;-69
2022/02/27 13:26:05;;;;;;;3.25;1.20;;;5.20;99.90;;;;;;4915702;29;20076;-67
2022/02/27 13:28:31;;;;;;;5.18;1.40;;;5.10;99.90;;;;;;4915022;29;20032;-69
2022/02/27 13:30:57;;;;;;;2.80;1.17;;;5.50;99.90;;;;;;4917581;29;20032;-69
2022/02/27 13:33:23;;;;;;;2.38;1.20;;;5.50;99.90;;;;;;4916831;29;20031;-70
2022/02/27 13:35:49;;;;;;;4.22;1.35;;;5.30;99.90;;;;;;4916479;29;20028;-72
2022/02/27 13:38:22;;;;;;;2.92;1.33;;;5.20;99.90;;;;;;4915898;29;20488;-72
2022/02/27 13:40:52;;;;;;;3.97;1.27;;;5.10;99.90;;;;;;4915070;29;20484;-72
2022/02/27 13:43:24;;;;;;;10.75;1.15;;;5.00;99.90;;;;;;4916616;29;20044;-72
2022/02/27 13:45:52;;;;;;;4.15;1.15;;;4.90;99.90;;;;;;4915081;29;20389;-72
2022/02/27 13:48:29;;;;;;;11.02;1.50;;;4.80;99.90;;;;;;4915971;29;20384;-73
2022/02/27 13:50:55;;;;;;;1.42;0.85;;;4.80;99.90;;;;;;4916346;29;20054;-74
2022/02/27 13:53:25;;;;;;;3.33;1.13;;;4.70;99.90;;;;;;4916465;29;20028;-72
2022/02/27 13:55:53;;;;;;;2.63;1.00;;;4.70;99.90;;;;;;4915622;29;20032;-71
2022/02/27 13:58:28;;;;;;;2.65;1.20;;;4.80;99.90;;;;;;4916403;29;20028;-72
2022/02/27 14:01:03;;;;;;;1.90;1.08;;;4.80;99.90;;;;;;4916206;29;20027;-71